Celine — HBEF — position and weather

sailwx.info

Track history (hours):
 
Tides and Currents Weather Stations Pressure Air Temp Water Temp Dewpoint Dewpoint Depression Visibility Wind Speed Wind Dir Waves Ship Positions

Celine

Last reported at 2016-Aug-27 12:24 UTC. Time now 2016-Aug-27 13:27 UTC.
Position N 36°56' W 076°22'.

Length 129 m; draft 4.4 m.

Type: Cargo ship. MMSI: 269057000.

Date/timePositionNaut miles runAvg speedWind from/ knotsBaromVisibWave heightAir tempDewpointWater temp
2016-Aug-27 12:24N 36°56' W 076°22'0 0.1
2016-Aug-27 10:27N 36°56' W 076°22'0 0.0
2016-Aug-27 09:27N 36°56' W 076°22'0 0.0
2016-Aug-27 08:30N 36°56' W 076°22'0 0.0
2016-Aug-27 07:33N 36°56' W 076°22'0 0.1
2016-Aug-27 06:17N 36°57' W 076°22'0 0.0
2016-Aug-27 04:26N 36°56' W 076°22'0 0.0
2016-Aug-27 03:27N 36°56' W 076°22'0 0.0
2016-Aug-27 00:30N 36°56' W 076°22'0 0.1
2016-Aug-26 23:29N 36°56' W 076°22'0 0.1
2016-Aug-26 20:09N 36°56' W 076°22'2 3.3
2016-Aug-26 19:34N 36°55' W 076°20'6 6.2
2016-Aug-26 18:33N 36°49' W 076°17'3 2.4
2016-Aug-26 17:32N 36°47' W 076°18'0 0.0
2016-Aug-26 16:32N 36°47' W 076°18'0 0.0
2016-Aug-26 15:32N 36°47' W 076°18'0 0.0
2016-Aug-26 14:32N 36°47' W 076°18'0 0.0
2016-Aug-26 13:32N 36°47' W 076°18'0 0.0
2016-Aug-26 12:32N 36°47' W 076°18'0 0.0
2016-Aug-26 11:32N 36°47' W 076°18'0 0.0
2016-Aug-26 10:32N 36°47' W 076°18'0 0.0
2016-Aug-26 09:32N 36°47' W 076°18'0 0.0
2016-Aug-26 08:32N 36°47' W 076°18'0 0.0
2016-Aug-26 07:32N 36°47' W 076°18'0 0.0
2016-Aug-26 06:29N 36°47' W 076°18'0 0.0
2016-Aug-26 04:32N 36°47' W 076°18'0 0.0
2016-Aug-26 03:32N 36°47' W 076°18'0 0.0
2016-Aug-26 02:32N 36°47' W 076°18'0 0.0
2016-Aug-26 01:32N 36°47' W 076°18'0 0.0
2016-Aug-26 00:32N 36°47' W 076°18'0 0.0
2016-Aug-25 23:32N 36°47' W 076°18'0 0.0
2016-Aug-25 22:29N 36°47' W 076°18'0 0.0
2016-Aug-25 21:32N 36°47' W 076°18'0 0.0
2016-Aug-25 20:32N 36°47' W 076°18'0 0.0
2016-Aug-25 19:32N 36°47' W 076°18'0 0.0
2016-Aug-25 18:32N 36°47' W 076°18'0 0.0
2016-Aug-25 17:32N 36°47' W 076°18'0 0.0
2016-Aug-25 16:32N 36°47' W 076°18'0 0.0
2016-Aug-25 15:32N 36°47' W 076°18'0 0.0
2016-Aug-25 14:32N 36°47' W 076°18'0 0.0
2016-Aug-25 13:29N 36°47' W 076°18'0 0.0
2016-Aug-25 12:32N 36°47' W 076°18'0 0.0
2016-Aug-25 11:32N 36°47' W 076°18'0 0.0
2016-Aug-25 10:32N 36°47' W 076°18'0 0.0
2016-Aug-25 09:32N 36°47' W 076°18'0 0.0
2016-Aug-25 08:32N 36°47' W 076°18'0 0.0
2016-Aug-25 07:32N 36°47' W 076°18'0 0.0
2016-Aug-25 06:29N 36°47' W 076°18'0 0.0
2016-Aug-25 04:32N 36°47' W 076°18'0 0.0
2016-Aug-25 03:32N 36°47' W 076°18'0 0.0
2016-Aug-25 02:32N 36°47' W 076°18'0 0.0
2016-Aug-25 01:32N 36°47' W 076°18'0 0.0
2016-Aug-25 00:32N 36°47' W 076°18'0 0.0
2016-Aug-24 23:32N 36°47' W 076°18'0 0.0
2016-Aug-24 22:32N 36°47' W 076°18'0 0.0
2016-Aug-24 21:32N 36°47' W 076°18'0 0.0
2016-Aug-24 20:32N 36°47' W 076°18'0 0.0
2016-Aug-24 19:32N 36°47' W 076°18'0 0.0
2016-Aug-24 18:32N 36°47' W 076°18'0 0.0
2016-Aug-24 17:32N 36°47' W 076°18'0 0.0
2016-Aug-24 16:32N 36°47' W 076°18'0 0.0
2016-Aug-24 15:32N 36°47' W 076°18'0 0.0
2016-Aug-24 14:32N 36°47' W 076°18'0 0.0
2016-Aug-24 13:33N 36°47' W 076°18'3 2.6
2016-Aug-24 12:33N 36°49' W 076°17'8 8.4
2016-Aug-24 11:33N 36°57' W 076°20'8 7.5
2016-Aug-24 10:30N 36°60' W 076°11'9 9.7
2016-Aug-24 09:33N 36°57' W 075°60'  
Track history (hours):
 
Tides and Currents Weather Stations Pressure Air Temp Water Temp Dewpoint Dewpoint Depression Visibility Wind Speed Wind Dir Waves Ship Positions

Celine

Last reported at 2016-Aug-27 12:24 UTC. Time now 2016-Aug-27 13:27 UTC.
Position N 36°56' W 076°22'.

Length 129 m; draft 4.4 m.

Type: Cargo ship. MMSI: 269057000.

Date/timePositionNaut miles runAvg speedWind from/ knotsBaromVisibWave heightAir tempDewpointWater temp
2016-Aug-27 12:24N 36°56' W 076°22'0 0.1
2016-Aug-27 10:27N 36°56' W 076°22'0 0.0
2016-Aug-27 09:27N 36°56' W 076°22'0 0.0
2016-Aug-27 08:30N 36°56' W 076°22'0 0.0
2016-Aug-27 07:33N 36°56' W 076°22'0 0.1
2016-Aug-27 06:17N 36°57' W 076°22'0 0.0
2016-Aug-27 04:26N 36°56' W 076°22'0 0.0
2016-Aug-27 03:27N 36°56' W 076°22'0 0.0
2016-Aug-27 00:30N 36°56' W 076°22'0 0.1
2016-Aug-26 23:29N 36°56' W 076°22'0 0.1
2016-Aug-26 20:09N 36°56' W 076°22'2 3.3
2016-Aug-26 19:34N 36°55' W 076°20'6 6.2
2016-Aug-26 18:33N 36°49' W 076°17'3 2.4
2016-Aug-26 17:32N 36°47' W 076°18'0 0.0
2016-Aug-26 16:32N 36°47' W 076°18'0 0.0
2016-Aug-26 15:32N 36°47' W 076°18'0 0.0
2016-Aug-26 14:32N 36°47' W 076°18'0 0.0
2016-Aug-26 13:32N 36°47' W 076°18'0 0.0
2016-Aug-26 12:32N 36°47' W 076°18'0 0.0
2016-Aug-26 11:32N 36°47' W 076°18'0 0.0
2016-Aug-26 10:32N 36°47' W 076°18'0 0.0
2016-Aug-26 09:32N 36°47' W 076°18'0 0.0
2016-Aug-26 08:32N 36°47' W 076°18'0 0.0
2016-Aug-26 07:32N 36°47' W 076°18'0 0.0
2016-Aug-26 06:29N 36°47' W 076°18'0 0.0
2016-Aug-26 04:32N 36°47' W 076°18'0 0.0
2016-Aug-26 03:32N 36°47' W 076°18'0 0.0
2016-Aug-26 02:32N 36°47' W 076°18'0 0.0
2016-Aug-26 01:32N 36°47' W 076°18'0 0.0
2016-Aug-26 00:32N 36°47' W 076°18'0 0.0
2016-Aug-25 23:32N 36°47' W 076°18'0 0.0
2016-Aug-25 22:29N 36°47' W 076°18'0 0.0
2016-Aug-25 21:32N 36°47' W 076°18'0 0.0
2016-Aug-25 20:32N 36°47' W 076°18'0 0.0
2016-Aug-25 19:32N 36°47' W 076°18'0 0.0
2016-Aug-25 18:32N 36°47' W 076°18'0 0.0
2016-Aug-25 17:32N 36°47' W 076°18'0 0.0
2016-Aug-25 16:32N 36°47' W 076°18'0 0.0
2016-Aug-25 15:32N 36°47' W 076°18'0 0.0
2016-Aug-25 14:32N 36°47' W 076°18'0 0.0
2016-Aug-25 13:29N 36°47' W 076°18'0 0.0
2016-Aug-25 12:32N 36°47' W 076°18'0 0.0
2016-Aug-25 11:32N 36°47' W 076°18'0 0.0
2016-Aug-25 10:32N 36°47' W 076°18'0 0.0
2016-Aug-25 09:32N 36°47' W 076°18'0 0.0
2016-Aug-25 08:32N 36°47' W 076°18'0 0.0
2016-Aug-25 07:32N 36°47' W 076°18'0 0.0
2016-Aug-25 06:29N 36°47' W 076°18'0 0.0
2016-Aug-25 04:32N 36°47' W 076°18'0 0.0
2016-Aug-25 03:32N 36°47' W 076°18'0 0.0
2016-Aug-25 02:32N 36°47' W 076°18'0 0.0
2016-Aug-25 01:32N 36°47' W 076°18'0 0.0
2016-Aug-25 00:32N 36°47' W 076°18'0 0.0
2016-Aug-24 23:32N 36°47' W 076°18'0 0.0
2016-Aug-24 22:32N 36°47' W 076°18'0 0.0
2016-Aug-24 21:32N 36°47' W 076°18'0 0.0
2016-Aug-24 20:32N 36°47' W 076°18'0 0.0
2016-Aug-24 19:32N 36°47' W 076°18'0 0.0
2016-Aug-24 18:32N 36°47' W 076°18'0 0.0
2016-Aug-24 17:32N 36°47' W 076°18'0 0.0
2016-Aug-24 16:32N 36°47' W 076°18'0 0.0
2016-Aug-24 15:32N 36°47' W 076°18'0 0.0
2016-Aug-24 14:32N 36°47' W 076°18'0 0.0
2016-Aug-24 13:33N 36°47' W 076°18'3 2.6
2016-Aug-24 12:33N 36°49' W 076°17'8 8.4
2016-Aug-24 11:33N 36°57' W 076°20'8 7.5
2016-Aug-24 10:30N 36°60' W 076°11'9 9.7
2016-Aug-24 09:33N 36°57' W 075°60'  

Dump ship's entire track history